Time;durP1;ratioP1;P1;durP2;ratioP2;P2;SDS_P1;SDS_P2;PMS_P1;PMS_P2;Temp;Humidity;BMP_temperature;BMP_pressure;BME280_temperature;BME280_humidity;BME280_pressure;Samples;Min_cycle;Max_cycle;Signal;HPM_P1;HPM_P2
2024/01/21 00:00:08;;;;;;;;;;;;;;;3.76;48.47;98139.13;4213120;28;5713;-68
2024/01/21 00:02:21;;;;;;;;;;;;;;;3.77;48.40;98132.09;4217529;28;5785;-69
2024/01/21 00:04:24;;;;;;;;;;;;;;;3.77;48.22;98126.88;4215598;28;5739;-68
2024/01/21 00:06:28;;;;;;;;;;;;;;;3.78;48.29;98136.38;4193230;28;5634;-68
2024/01/21 00:08:31;;;;;;;;;;;;;;;3.78;48.34;98128.53;4211857;28;5200;-68
2024/01/21 00:10:34;;;;;;;;;;;;;;;3.78;48.45;98133.78;4212909;28;5819;-67
2024/01/21 00:12:37;;;;;;;;;;;;;;;3.77;48.32;98129.50;4208434;28;5774;-68
2024/01/21 00:14:40;;;;;;;;;;;;;;;3.78;48.35;98125.91;4210954;28;5722;-68
2024/01/21 00:16:43;;;;;;;;;;;;;;;3.78;48.44;98125.91;4206060;28;5640;-68
2024/01/21 00:18:46;;;;;;;;;;;;;;;3.78;48.39;98123.31;4208870;28;5846;-68
2024/01/21 00:20:50;;;;;;;;;;;;;;;3.77;48.50;98119.03;4209172;28;5652;-67
2024/01/21 00:22:55;;;;;;;;;;;;;;;3.79;48.55;98119.72;4212059;28;5711;-68
2024/01/21 00:24:57;;;;;;;;;;;;;;;3.77;48.44;98113.78;4210655;28;5625;-68
2024/01/21 00:27:00;;;;;;;;;;;;;;;3.78;48.50;98115.47;4212268;28;5647;-68
2024/01/21 00:29:03;;;;;;;;;;;;;;;3.78;48.71;98118.06;4208496;28;5715;-67
2024/01/21 00:31:06;;;;;;;;;;;;;;;3.78;48.67;98120.69;4214142;28;5715;-67
2024/01/21 00:33:09;;;;;;;;;;;;;;;3.80;48.75;98116.16;4212098;28;5516;-67
2024/01/21 00:35:12;;;;;;;;;;;;;;;3.80;48.49;98121.41;4211349;28;7080;-67
2024/01/21 00:37:15;;;;;;;;;;;;;;;3.79;48.72;98114.50;4207486;28;5739;-68
2024/01/21 00:39:19;;;;;;;;;;;;;;;3.79;48.58;98127.59;4205511;28;5645;-68
2024/01/21 00:41:22;;;;;;;;;;;;;;;3.78;48.73;98136.38;4203828;28;5687;-68
2024/01/21 00:43:26;;;;;;;;;;;;;;;3.78;48.71;98139.00;4204306;28;5664;-67
2024/01/21 00:45:29;;;;;;;;;;;;;;;3.75;48.72;98129.59;4214511;28;5707;-68
2024/01/21 00:47:31;;;;;;;;;;;;;;;3.75;48.64;98124.38;4216907;28;5633;-69
2024/01/21 00:49:34;;;;;;;;;;;;;;;3.76;48.71;98126.03;4207515;28;5652;-68
2024/01/21 00:51:37;;;;;;;;;;;;;;;3.76;48.62;98130.44;4200878;28;5635;-67
2024/01/21 00:53:40;;;;;;;;;;;;;;;3.76;48.71;98119.97;4213573;28;5822;-67
2024/01/21 00:55:45;;;;;;;;;;;;;;;3.74;48.77;98119.28;4216803;28;5669;-67
2024/01/21 00:57:47;;;;;;;;;;;;;;;3.74;48.61;98121.88;4209574;28;5673;-67
2024/01/21 00:59:50;;;;;;;;;;;;;;;3.74;48.75;98132.34;4217427;28;5692;-67
2024/01/21 01:01:53;;;;;;;;;;;;;;;3.73;48.74;98122.81;4205880;28;5612;-67
2024/01/21 01:03:56;;;;;;;;;;;;;;;3.73;48.67;98130.66;4190197;28;5805;-67
2024/01/21 01:06:00;;;;;;;;;;;;;;;3.73;48.70;98131.47;4211861;28;5748;-68
2024/01/21 01:08:03;;;;;;;;;;;;;;;3.75;48.77;98131.41;4211688;28;5849;-68
2024/01/21 01:10:07;;;;;;;;;;;;;;;3.75;48.73;98129.59;4208074;28;5738;-68
2024/01/21 01:12:10;;;;;;;;;;;;;;;3.76;48.75;98135.69;4207236;28;5616;-69
2024/01/21 01:14:14;;;;;;;;;;;;;;;3.76;48.67;98135.69;4210506;28;5739;-67
2024/01/21 01:16:17;;;;;;;;;;;;;;;3.77;48.63;98132.94;4209605;28;5644;-67
2024/01/21 01:18:20;;;;;;;;;;;;;;;3.76;48.60;98133.06;4214203;28;5613;-67
2024/01/21 01:20:23;;;;;;;;;;;;;;;3.73;48.65;98141.13;4217277;28;5980;-68
2024/01/21 01:22:27;;;;;;;;;;;;;;;3.72;48.66;98140.28;4206612;28;5632;-68
2024/01/21 01:24:29;;;;;;;;;;;;;;;3.72;48.60;98150.75;4209133;28;5668;-69
2024/01/21 01:26:32;;;;;;;;;;;;;;;3.71;48.81;98151.69;4217519;28;5605;-68
2024/01/21 01:28:36;;;;;;;;;;;;;;;3.73;48.65;98152.41;4209231;28;5620;-68
2024/01/21 01:30:38;;;;;;;;;;;;;;;3.73;48.74;98147.19;4209106;28;5672;-68
2024/01/21 01:32:41;;;;;;;;;;;;;;;3.73;48.82;98151.56;4209939;28;5687;-68
2024/01/21 01:34:44;;;;;;;;;;;;;;;3.72;48.86;98155.16;4208678;28;5605;-68
2024/01/21 01:36:48;;;;;;;;;;;;;;;3.74;48.84;98161.13;4194346;28;5631;-68
2024/01/21 01:38:51;;;;;;;;;;;;;;;3.74;48.85;98166.34;4209164;28;5695;-68
2024/01/21 01:40:54;;;;;;;;;;;;;;;3.74;48.74;98163.72;4208939;28;5703;-68
2024/01/21 01:43:02;;;;;;;;;;;;;;;3.72;48.76;98158.59;4209051;28;5945;-68
2024/01/21 01:45:08;;;;;;;;;;;;;;;3.73;48.87;98156.81;4191195;28;5767;-68
2024/01/21 01:47:10;;;;;;;;;;;;;;;3.70;48.83;98157.88;4208784;28;5699;-68
2024/01/21 01:49:13;;;;;;;;;;;;;;;3.69;48.74;98166.69;4217424;28;5620;-68
2024/01/21 01:51:17;;;;;;;;;;;;;;;3.70;48.75;98162.28;4205269;28;5750;-66
2024/01/21 01:53:20;;;;;;;;;;;;;;;3.70;48.86;98154.44;4214394;28;5620;-68
2024/01/21 01:55:23;;;;;;;;;;;;;;;3.70;48.78;98157.06;4208527;28;5786;-67
2024/01/21 01:57:27;;;;;;;;;;;;;;;3.71;48.89;98163.94;4208464;28;5717;-68
2024/01/21 01:59:33;;;;;;;;;;;;;;;3.72;48.83;98165.59;4204721;28;5826;-68
2024/01/21 02:01:37;;;;;;;;;;;;;;;3.72;48.93;98157.75;4204557;28;5798;-67
2024/01/21 02:03:41;;;;;;;;;;;;;;;3.74;48.91;98158.50;4203743;28;5772;-68
2024/01/21 02:05:44;;;;;;;;;;;;;;;3.72;48.82;98155.97;4213228;28;5613;-68
2024/01/21 02:07:48;;;;;;;;;;;;;;;3.73;48.86;98149.78;4209802;28;5746;-68
2024/01/21 02:09:51;;;;;;;;;;;;;;;3.72;48.83;98157.75;4209388;28;5711;-69
2024/01/21 02:11:54;;;;;;;;;;;;;;;3.72;48.83;98150.75;4206446;28;6306;-68
2024/01/21 02:13:57;;;;;;;;;;;;;;;3.72;48.86;98155.97;4212457;28;5597;-68
2024/01/21 02:16:00;;;;;;;;;;;;;;;3.71;48.98;98143.84;4214900;28;5672;-68
2024/01/21 02:18:05;;;;;;;;;;;;;;;3.71;49.04;98149.09;4210482;28;5617;-68
2024/01/21 02:20:09;;;;;;;;;;;;;;;3.70;49.03;98146.59;4202745;28;5619;-68
2024/01/21 02:22:12;;;;;;;;;;;;;;;3.71;49.09;98153.47;4210808;28;5620;-68
2024/01/21 02:24:17;;;;;;;;;;;;;;;3.72;49.17;98155.16;4209467;28;6552;-68
2024/01/21 02:26:20;;;;;;;;;;;;;;;3.73;49.07;98151.56;4215572;28;5743;-68
2024/01/21 02:28:23;;;;;;;;;;;;;;;3.72;49.11;98150.75;4212693;28;5715;-68
2024/01/21 02:30:24;;;;;;;;;;;;;;;3.73;49.12;98141.94;4209498;28;5834;-69
2024/01/21 02:32:28;;;;;;;;;;;;;;;3.74;49.13;98150.66;4214017;28;5112;-68
2024/01/21 02:34:31;;;;;;;;;;;;;;;3.75;49.25;98149.69;4208559;28;6357;-68
2024/01/21 02:36:34;;;;;;;;;;;;;;;3.75;49.23;98147.09;4213227;28;5616;-68
2024/01/21 02:38:36;;;;;;;;;;;;;;;3.74;49.19;98142.81;4208905;28;5680;-68
2024/01/21 02:40:40;;;;;;;;;;;;;;;3.75;49.40;98144.47;4211235;28;5805;-68
2024/01/21 02:42:43;;;;;;;;;;;;;;;3.76;49.33;98146.13;4213790;28;5629;-68
2024/01/21 02:44:49;;;;;;;;;;;;;;;3.76;49.46;98152.19;4211025;28;5708;-68
2024/01/21 02:46:52;;;;;;;;;;;;;;;3.77;49.47;98155.66;4210138;28;5609;-68
2024/01/21 02:48:54;;;;;;;;;;;;;;;3.76;49.49;98162.66;4207886;28;5633;-68
2024/01/21 02:50:57;;;;;;;;;;;;;;;3.76;49.42;98151.38;4208968;28;5620;-68
2024/01/21 02:53:00;;;;;;;;;;;;;;;3.77;49.44;98147.81;4216071;28;5861;-68
2024/01/21 02:55:04;;;;;;;;;;;;;;;3.79;49.49;98145.91;4208685;28;6936;-68
2024/01/21 02:57:08;;;;;;;;;;;;;;;3.79;49.49;98145.91;4210810;28;5676;-67
2024/01/21 02:59:12;;;;;;;;;;;;;;;3.79;49.56;98145.91;4210415;28;5735;-67
2024/01/21 03:01:15;;;;;;;;;;;;;;;3.77;49.53;98148.63;4204394;28;5648;-67
2024/01/21 03:03:18;;;;;;;;;;;;;;;3.73;49.80;98143.72;4213943;28;5601;-67
2024/01/21 03:05:21;;;;;;;;;;;;;;;3.73;49.76;98156.81;4207894;28;5704;-67
2024/01/21 03:07:24;;;;;;;;;;;;;;;3.74;49.71;98158.50;4205690;28;5643;-67
2024/01/21 03:09:25;;;;;;;;;;;;;;;3.75;49.92;98160.16;4206265;28;5643;-67
2024/01/21 03:11:29;;;;;;;;;;;;;;;3.75;49.81;98168.00;4211540;28;5621;-67
2024/01/21 03:13:33;;;;;;;;;;;;;;;3.73;49.96;98162.03;4208507;28;5785;-67
2024/01/21 03:15:36;;;;;;;;;;;;;;;3.73;50.00;98172.50;4214988;28;5703;-67
2024/01/21 03:17:39;;;;;;;;;;;;;;;3.73;49.96;98167.28;4212421;28;5099;-67
2024/01/21 03:19:42;;;;;;;;;;;;;;;3.73;49.99;98173.34;4210504;28;7715;-67
2024/01/21 03:21:46;;;;;;;;;;;;;;;3.73;50.03;98164.66;4214341;28;5815;-68
2024/01/21 03:23:49;;;;;;;;;;;;;;;3.75;50.05;98162.78;4210975;28;5827;-68
2024/01/21 03:25:52;;;;;;;;;;;;;;;3.75;49.95;98154.94;4216846;28;5771;-68
2024/01/21 03:27:55;;;;;;;;;;;;;;;3.74;50.22;98153.28;4215862;28;5760;-67
2024/01/21 03:29:59;;;;;;;;;;;;;;;3.76;50.25;98156.59;4205196;28;5647;-67
2024/01/21 03:32:02;;;;;;;;;;;;;;;3.76;50.26;98156.59;4213005;28;5739;-68
2024/01/21 03:34:05;;;;;;;;;;;;;;;3.78;50.28;98154.69;4211925;28;5349;-68
2024/01/21 03:36:08;;;;;;;;;;;;;;;3.79;50.23;98156.34;4205127;28;8413;-68
2024/01/21 03:38:11;;;;;;;;;;;;;;;3.79;50.25;98153.75;4212155;28;5744;-68
2024/01/21 03:40:14;;;;;;;;;;;;;;;3.81;50.31;98157.06;4208174;28;5627;-68
2024/01/21 03:42:16;;;;;;;;;;;;;;;3.80;50.31;98148.38;4211561;28;5913;-68
2024/01/21 03:44:19;;;;;;;;;;;;;;;3.82;50.40;98144.81;4205675;28;5624;-68
2024/01/21 03:46:24;;;;;;;;;;;;;;;3.79;50.50;98145.91;4209142;28;5640;-68
2024/01/21 03:48:27;;;;;;;;;;;;;;;3.80;50.60;98137.94;4217963;28;5684;-68
2024/01/21 03:50:30;;;;;;;;;;;;;;;3.81;50.58;98133.53;4218763;28;5616;-69
2024/01/21 03:52:33;;;;;;;;;;;;;;;3.82;50.54;98129.13;4209069;28;5657;-69
2024/01/21 03:54:36;;;;;;;;;;;;;;;3.80;50.54;98126.63;4219033;28;5728;-68
2024/01/21 03:56:39;;;;;;;;;;;;;;;3.80;50.58;98127.47;4218708;28;5624;-68
2024/01/21 03:58:42;;;;;;;;;;;;;;;3.79;50.65;98125.78;4218580;28;5733;-68
2024/01/21 04:00:45;;;;;;;;;;;;;;;3.79;50.72;98123.19;4210872;28;5703;-68
2024/01/21 04:02:49;;;;;;;;;;;;;;;3.79;50.86;98123.19;4210857;28;5695;-69
2024/01/21 04:04:53;;;;;;;;;;;;;;;3.79;50.73;98119.72;4210538;28;5694;-68
2024/01/21 04:06:56;;;;;;;;;;;;;;;3.79;50.77;98124.97;4218635;28;5912;-68
2024/01/21 04:08:59;;;;;;;;;;;;;;;3.78;50.85;98123.31;4216864;28;5733;-68
2024/01/21 04:11:02;;;;;;;;;;;;;;;3.77;50.94;98129.50;4203925;28;5777;-67
2024/01/21 04:13:05;;;;;;;;;;;;;;;3.77;51.08;98126.88;4216126;28;5637;-67
2024/01/21 04:15:08;;;;;;;;;;;;;;;3.78;50.83;98123.31;4213263;28;5612;-67
2024/01/21 04:17:12;;;;;;;;;;;;;;;3.77;50.98;98132.09;4218867;28;5704;-68
2024/01/21 04:19:19;;;;;;;;;;;;;;;3.73;51.03;98123.63;4214843;28;5695;-67
2024/01/21 04:21:23;;;;;;;;;;;;;;;3.73;50.90;98130.66;4215121;28;5620;-68
2024/01/21 04:23:26;;;;;;;;;;;;;;;3.72;51.12;98129.00;4204505;28;5714;-68
2024/01/21 04:25:28;;;;;;;;;;;;;;;3.68;51.09;98119.72;4210193;28;5828;-68
2024/01/21 04:27:31;;;;;;;;;;;;;;;3.70;51.19;98130.91;4207725;28;5671;-68
2024/01/21 04:29:34;;;;;;;;;;;;;;;3.69;51.27;98130.06;4218513;28;5696;-68
2024/01/21 04:31:37;;;;;;;;;;;;;;;3.70;51.24;98125.66;4199435;28;5863;-68
2024/01/21 04:33:40;;;;;;;;;;;;;;;3.73;51.17;98123.63;4216349;28;5772;-68
2024/01/21 04:35:44;;;;;;;;;;;;;;;3.75;51.31;98126.16;4218074;28;5779;-68
2024/01/21 04:37:47;;;;;;;;;;;;;;;3.76;51.20;98125.22;4213076;28;5608;-68
2024/01/21 04:39:50;;;;;;;;;;;;;;;3.78;51.21;98133.78;4218119;28;5824;-68
2024/01/21 04:41:53;;;;;;;;;;;;;;;3.78;51.29;98133.78;4209879;28;5702;-67
2024/01/21 04:43:57;;;;;;;;;;;;;;;3.77;51.51;98134.72;4216802;28;5624;-68
2024/01/21 04:46:01;;;;;;;;;;;;;;;3.77;51.32;98137.34;4203050;28;5684;-68
2024/01/21 04:48:05;;;;;;;;;;;;;;;3.77;51.43;98132.09;4215653;28;5092;-68
2024/01/21 04:50:09;;;;;;;;;;;;;;;3.77;51.44;98142.56;4212779;28;5689;-69
2024/01/21 04:52:14;;;;;;;;;;;;;;;3.76;51.56;98135.69;4214285;28;5794;-69
2024/01/21 04:54:16;;;;;;;;;;;;;;;3.78;51.59;98139.84;4213685;28;5753;-69
2024/01/21 04:56:20;;;;;;;;;;;;;;;3.79;51.50;98136.25;4209714;28;5673;-69
2024/01/21 04:58:22;;;;;;;;;;;;;;;3.80;51.60;98142.31;4217594;28;5636;-69
2024/01/21 05:00:25;;;;;;;;;;;;;;;3.80;51.63;98147.56;4212256;28;5679;-69
2024/01/21 05:02:28;;;;;;;;;;;;;;;3.81;51.57;98149.22;4209858;28;5647;-69
2024/01/21 05:04:31;;;;;;;;;;;;;;;3.81;51.66;98154.44;4210869;28;5649;-68
2024/01/21 05:06:34;;;;;;;;;;;;;;;3.80;51.72;98150.16;4217851;28;5616;-68
2024/01/21 05:08:39;;;;;;;;;;;;;;;3.82;51.69;98155.28;4216167;28;5612;-68
2024/01/21 05:10:42;;;;;;;;;;;;;;;3.83;51.87;98155.16;4201391;28;5631;-66
2024/01/21 05:12:44;;;;;;;;;;;;;;;3.86;51.66;98148.88;4201168;28;5711;-68
2024/01/21 05:14:47;;;;;;;;;;;;;;;3.86;51.80;98149.72;4217413;28;5713;-69
2024/01/21 05:16:49;;;;;;;;;;;;;;;3.86;51.67;98143.66;4209086;28;5699;-68
2024/01/21 05:18:52;;;;;;;;;;;;;;;3.86;51.84;98147.09;4209847;28;5760;-69
2024/01/21 05:20:56;;;;;;;;;;;;;;;3.88;51.95;98155.66;4217373;28;5216;-69
2024/01/21 05:22:59;;;;;;;;;;;;;;;3.87;52.04;98150.53;4217487;28;7731;-68
2024/01/21 05:25:04;;;;;;;;;;;;;;;3.87;52.02;98156.59;4217714;28;5755;-68
2024/01/21 05:27:07;;;;;;;;;;;;;;;3.89;52.08;98161.72;4217958;28;5676;-68
2024/01/21 05:29:09;;;;;;;;;;;;;;;3.90;51.94;98169.44;4217796;28;5702;-68
2024/01/21 05:31:12;;;;;;;;;;;;;;;3.89;51.72;98173.00;4217628;28;5775;-68
2024/01/21 05:33:15;;;;;;;;;;;;;;;3.88;52.12;98167.91;4217097;28;7765;-68
2024/01/21 05:35:18;;;;;;;;;;;;;;;3.88;51.91;98170.53;4212368;28;5847;-68
2024/01/21 05:37:21;;;;;;;;;;;;;;;3.87;52.12;98172.31;4217055;28;5104;-68
2024/01/21 05:39:26;;;;;;;;;;;;;;;3.89;52.11;98187.88;4217372;28;5712;-68
2024/01/21 05:41:31;;;;;;;;;;;;;;;3.89;52.16;98188.72;4208998;28;5644;-68
2024/01/21 05:43:33;;;;;;;;;;;;;;;3.89;52.29;98193.13;4210683;28;5761;-68
2024/01/21 05:45:36;;;;;;;;;;;;;;;3.88;52.27;98192.28;4215955;28;5609;-68
2024/01/21 05:47:38;;;;;;;;;;;;;;;3.87;52.25;98195.03;4201289;28;5702;-69
2024/01/21 05:49:41;;;;;;;;;;;;;;;3.88;52.40;98192.28;4208598;28;5871;-67
2024/01/21 05:51:44;;;;;;;;;;;;;;;3.91;52.43;98192.03;4216639;28;5657;-68
2024/01/21 05:53:47;;;;;;;;;;;;;;;3.93;52.36;98189.31;4217183;28;5628;-67
2024/01/21 05:55:50;;;;;;;;;;;;;;;3.91;52.38;98178.97;4200495;28;5698;-68
2024/01/21 05:57:55;;;;;;;;;;;;;;;3.92;52.37;98183.25;4200224;28;5711;-68
2024/01/21 05:59:58;;;;;;;;;;;;;;;3.92;52.34;98187.63;4200651;28;5703;-68
2024/01/21 06:02:01;;;;;;;;;;;;;;;3.93;52.56;98187.50;4211310;28;5620;-68
2024/01/21 06:04:04;;;;;;;;;;;;;;;3.94;52.53;98186.56;4214929;28;5830;-68
2024/01/21 06:06:07;;;;;;;;;;;;;;;3.94;52.60;98194.41;4211427;28;5154;-68
2024/01/21 06:08:11;;;;;;;;;;;;;;;3.94;52.41;98191.78;4216745;28;7664;-68
2024/01/21 06:10:13;;;;;;;;;;;;;;;3.95;52.52;98192.63;4216805;28;5591;-68
2024/01/21 06:12:16;;;;;;;;;;;;;;;3.95;52.62;98184.78;4217082;28;5732;-68
2024/01/21 06:14:21;;;;;;;;;;;;;;;3.95;52.73;98188.22;4217141;28;5888;-68
2024/01/21 06:16:23;;;;;;;;;;;;;;;3.96;52.79;98197.75;4216612;28;6764;-69
2024/01/21 06:18:27;;;;;;;;;;;;;;;3.97;52.90;98191.59;4216825;28;5641;-68
2024/01/21 06:20:30;;;;;;;;;;;;;;;3.99;52.70;98194.91;4216750;28;5661;-68
2024/01/21 06:22:33;;;;;;;;;;;;;;;3.99;52.73;98189.69;4205205;28;5714;-67
2024/01/21 06:24:36;;;;;;;;;;;;;;;3.99;52.98;98205.38;4215436;28;5768;-68
2024/01/21 06:26:40;;;;;;;;;;;;;;;4.01;52.91;98210.50;4216741;28;5672;-68
2024/01/21 06:28:42;;;;;;;;;;;;;;;4.02;52.94;98217.38;4217099;28;5870;-68
2024/01/21 06:30:47;;;;;;;;;;;;;;;4.02;52.84;98225.25;4216848;28;5598;-68
2024/01/21 06:32:50;;;;;;;;;;;;;;;4.02;52.91;98225.25;4209018;28;5707;-69
2024/01/21 06:35:05;;;;;;;;;;;;;;;4.02;52.90;98226.06;4208250;28;5695;-68
2024/01/21 06:37:08;;;;;;;;;;;;;;;4.02;52.98;98233.09;4215022;28;5624;-69
2024/01/21 06:39:09;;;;;;;;;;;;;;;4.03;52.88;98235.59;4216522;28;5855;-69
2024/01/21 06:41:12;;;;;;;;;;;;;;;4.03;53.00;98232.13;4216939;28;5695;-69
2024/01/21 06:43:14;;;;;;;;;;;;;;;4.02;53.06;98230.47;4215990;28;5626;-69
2024/01/21 06:45:18;;;;;;;;;;;;;;;4.02;52.95;98227.84;4216111;28;7707;-68
2024/01/21 06:47:22;;;;;;;;;;;;;;;4.03;53.15;98238.19;4213745;28;5723;-69
2024/01/21 06:49:25;;;;;;;;;;;;;;;4.05;53.13;98252.00;4220201;28;5677;-68
2024/01/21 06:51:34;;;;;;;;;;;;;;;4.05;53.22;98252.00;4214068;28;5648;-69
2024/01/21 06:53:37;;;;;;;;;;;;;;;4.05;53.06;98252.00;4213568;28;5862;-68
2024/01/21 06:55:41;;;;;;;;;;;;;;;4.08;53.07;98266.66;4219883;28;5667;-68
2024/01/21 06:57:44;;;;;;;;;;;;;;;4.08;53.06;98264.88;4211772;28;5671;-67
2024/01/21 06:59:47;;;;;;;;;;;;;;;4.09;53.26;98265.72;4211382;28;5621;-68
2024/01/21 07:01:50;;;;;;;;;;;;;;;4.06;53.21;98269.38;4215357;28;5767;-68
2024/01/21 07:03:54;;;;;;;;;;;;;;;4.09;53.19;98270.94;4219712;28;5665;-68
2024/01/21 07:05:57;;;;;;;;;;;;;;;4.09;53.21;98269.16;4219752;28;5621;-68
2024/01/21 07:08:01;;;;;;;;;;;;;;;4.10;53.25;98270.00;4219521;28;5613;-68
2024/01/21 07:10:04;;;;;;;;;;;;;;;4.12;53.17;98272.47;4210714;28;5683;-68
2024/01/21 07:12:08;;;;;;;;;;;;;;;4.09;53.22;98274.38;4213896;28;5722;-68
2024/01/21 07:14:11;;;;;;;;;;;;;;;4.11;53.20;98271.66;4219799;28;5834;-68
2024/01/21 07:16:14;;;;;;;;;;;;;;;4.13;53.44;98282.00;4215824;28;7840;-69
2024/01/21 07:18:17;;;;;;;;;;;;;;;4.13;53.29;98280.22;4215184;28;5656;-69
2024/01/21 07:20:21;;;;;;;;;;;;;;;4.14;53.44;98288.91;4219658;28;5813;-68
2024/01/21 07:22:24;;;;;;;;;;;;;;;4.15;53.40;98296.63;4219511;28;5711;-68
2024/01/21 07:24:27;;;;;;;;;;;;;;;4.16;53.41;98290.44;4214116;28;5807;-68
2024/01/21 07:26:30;;;;;;;;;;;;;;;4.17;53.43;98301.75;4216870;28;5612;-68
2024/01/21 07:28:33;;;;;;;;;;;;;;;4.18;53.40;98306.84;4210825;28;5628;-69
2024/01/21 07:30:37;;;;;;;;;;;;;;;4.19;53.47;98315.53;4208223;28;5809;-68
2024/01/21 07:32:40;;;;;;;;;;;;;;;4.20;53.59;98327.72;4205670;28;5648;-68
2024/01/21 07:34:43;;;;;;;;;;;;;;;4.20;53.62;98319.84;4211346;28;5636;-69
2024/01/21 07:36:48;;;;;;;;;;;;;;;4.21;53.75;98324.13;4219154;28;5737;-68
2024/01/21 07:38:50;;;;;;;;;;;;;;;4.22;53.53;98315.34;4203242;28;5896;-67
2024/01/21 07:40:53;;;;;;;;;;;;;;;4.23;53.58;98324.84;4214633;28;5543;-68
2024/01/21 07:42:56;;;;;;;;;;;;;;;4.24;53.75;98318.66;4219073;28;5786;-68
2024/01/21 07:44:59;;;;;;;;;;;;;;;4.25;53.57;98320.34;4219141;28;5911;-68
2024/01/21 07:47:02;;;;;;;;;;;;;;;4.27;53.74;98334.13;4219034;28;5776;-68
2024/01/21 07:49:05;;;;;;;;;;;;;;;4.27;53.79;98329.72;4219177;28;5721;-68
2024/01/21 07:51:08;;;;;;;;;;;;;;;4.28;53.73;98330.56;4218254;28;6458;-68
2024/01/21 07:53:13;;;;;;;;;;;;;;;4.28;53.74;98331.41;4218659;28;5704;-67
2024/01/21 07:55:16;;;;;;;;;;;;;;;4.31;53.85;98327.72;4210102;28;5656;-68
2024/01/21 07:57:19;;;;;;;;;;;;;;;4.32;53.76;98318.94;4217207;28;5875;-69
2024/01/21 07:59:24;;;;;;;;;;;;;;;4.34;53.72;98322.25;4216243;28;5830;-68
2024/01/21 08:01:28;;;;;;;;;;;;;;;4.34;53.90;98322.25;4213217;28;5117;-68
2024/01/21 08:03:34;;;;;;;;;;;;;;;4.34;53.77;98319.63;4216575;28;6318;-68
2024/01/21 08:05:38;;;;;;;;;;;;;;;4.37;53.88;98322.00;4211701;28;5754;-68
2024/01/21 08:07:42;;;;;;;;;;;;;;;4.35;54.09;98321.31;4209258;28;5655;-68
2024/01/21 08:09:50;;;;;;;;;;;;;;;4.37;54.05;98328.09;4218720;28;5605;-69
2024/01/21 08:11:52;;;;;;;;;;;;;;;4.39;53.82;98325.34;4219017;28;5665;-68
2024/01/21 08:13:55;;;;;;;;;;;;;;;4.41;54.08;98331.28;4218620;28;5685;-68
2024/01/21 08:15:59;;;;;;;;;;;;;;;4.39;54.14;98330.56;4218689;28;5738;-68
2024/01/21 08:18:02;;;;;;;;;;;;;;;4.42;54.05;98342.59;4209981;28;5831;-68
2024/01/21 08:20:11;;;;;;;;;;;;;;;4.38;54.14;98332.38;4215753;28;5707;-69
2024/01/21 08:22:16;;;;;;;;;;;;;;;4.44;54.11;98341.56;4214114;28;5676;-68
2024/01/21 08:24:19;;;;;;;;;;;;;;;4.44;54.24;98338.94;4215010;28;5716;-68
2024/01/21 08:26:24;;;;;;;;;;;;;;;4.45;54.05;98339.78;4208955;28;5692;-68
2024/01/21 08:28:28;;;;;;;;;;;;;;;4.46;54.08;98350.13;4214441;28;5697;-68
2024/01/21 08:30:31;;;;;;;;;;;;;;;4.48;54.11;98353.44;4215304;28;5617;-69
2024/01/21 08:32:34;;;;;;;;;;;;;;;4.50;54.23;98351.53;4218188;28;5762;-69
2024/01/21 08:34:38;;;;;;;;;;;;;;;4.53;54.25;98340.84;4215163;28;5804;-69
2024/01/21 08:36:41;;;;;;;;;;;;;;;4.54;54.21;98352.16;4216783;28;5854;-69
2024/01/21 08:38:44;;;;;;;;;;;;;;;4.54;54.27;98353.00;4207625;28;6448;-68
2024/01/21 08:40:46;;;;;;;;;;;;;;;4.55;54.32;98359.91;4209906;28;5811;-68
2024/01/21 08:42:50;;;;;;;;;;;;;;;4.55;54.23;98359.06;4218222;28;5632;-69
2024/01/21 08:44:54;;;;;;;;;;;;;;;4.56;54.52;98358.13;4218201;28;5624;-68
2024/01/21 08:46:56;;;;;;;;;;;;;;;4.58;54.46;98358.81;4217864;28;5613;-69
2024/01/21 08:48:59;;;;;;;;;;;;;;;4.61;54.17;98353.34;4218080;28;5684;-68
2024/01/21 08:51:02;;;;;;;;;;;;;;;4.63;54.38;98354.06;4217547;28;5810;-68
2024/01/21 08:53:07;;;;;;;;;;;;;;;4.64;54.48;98348.72;4217872;28;5665;-68
2024/01/21 08:55:11;;;;;;;;;;;;;;;4.66;54.46;98357.28;4191786;28;5731;-68
2024/01/21 08:57:14;;;;;;;;;;;;;;;4.68;54.32;98351.94;4209086;28;5798;-68
2024/01/21 08:59:19;;;;;;;;;;;;;;;4.71;54.41;98353.47;4208083;28;5699;-68
2024/01/21 09:01:21;;;;;;;;;;;;;;;4.70;54.37;98351.81;4217761;28;5763;-68
2024/01/21 09:03:24;;;;;;;;;;;;;;;4.71;54.34;98363.97;4217283;28;5628;-68
2024/01/21 09:05:28;;;;;;;;;;;;;;;4.72;54.47;98355.13;4217703;28;5834;-68
2024/01/21 09:07:31;;;;;;;;;;;;;;;4.75;54.50;98353.09;4217931;28;5763;-68
2024/01/21 09:09:35;;;;;;;;;;;;;;;4.78;54.24;98355.50;4212338;28;5946;-69
2024/01/21 09:11:37;;;;;;;;;;;;;;;4.82;54.25;98363.97;4217651;28;5711;-69
2024/01/21 09:13:40;;;;;;;;;;;;;;;4.81;54.42;98365.75;4217728;28;5717;-69
2024/01/21 09:15:47;;;;;;;;;;;;;;;4.83;54.23;98363.84;4217719;28;5632;-71
2024/01/21 09:17:51;;;;;;;;;;;;;;;4.82;54.25;98361.34;4217300;28;5940;-69
2024/01/21 09:19:55;;;;;;;;;;;;;;;4.85;54.05;98350.63;4217632;28;7028;-69
2024/01/21 09:21:58;;;;;;;;;;;;;;;4.86;54.48;98362.75;4214998;28;5684;-68
2024/01/21 09:24:04;;;;;;;;;;;;;;;4.87;54.39;98359.19;4217388;28;5623;-69
2024/01/21 09:26:08;;;;;;;;;;;;;;;4.89;54.26;98360.75;4217723;28;6359;-69
2024/01/21 09:28:12;;;;;;;;;;;;;;;4.92;54.17;98363.13;4217301;28;5775;-69
2024/01/21 09:30:15;;;;;;;;;;;;;;;4.91;54.14;98356.22;4217260;28;5674;-69
2024/01/21 09:32:20;;;;;;;;;;;;;;;4.95;54.21;98351.56;4217380;28;5665;-69
2024/01/21 09:34:23;;;;;;;;;;;;;;;4.94;54.21;98345.50;4217426;28;5710;-68
2024/01/21 09:36:26;;;;;;;;;;;;;;;5.00;54.24;98348.59;4217143;28;5665;-69
2024/01/21 09:38:29;;;;;;;;;;;;;;;4.99;54.27;98360.88;4217699;28;5665;-69
2024/01/21 09:40:32;;;;;;;;;;;;;;;5.00;54.45;98359.91;4217708;28;5657;-68
2024/01/21 09:42:36;;;;;;;;;;;;;;;5.00;54.42;98359.09;4217566;28;5685;-68
2024/01/21 09:44:39;;;;;;;;;;;;;;;5.03;54.22;98364.09;4217583;28;5089;-68
2024/01/21 09:46:42;;;;;;;;;;;;;;;5.04;54.45;98369.19;4217288;28;7648;-68
2024/01/21 09:48:49;;;;;;;;;;;;;;;5.02;54.19;98371.13;4217674;28;5692;-68
2024/01/21 09:50:54;;;;;;;;;;;;;;;5.06;54.29;98371.69;4216987;28;5672;-68
2024/01/21 09:52:57;;;;;;;;;;;;;;;5.08;54.25;98372.41;4214178;28;5711;-69
2024/01/21 09:55:01;;;;;;;;;;;;;;;5.09;54.34;98364.41;4215969;28;5609;-69
2024/01/21 09:57:06;;;;;;;;;;;;;;;5.11;54.25;98365.16;4213717;28;5350;-69
2024/01/21 09:59:10;;;;;;;;;;;;;;;5.09;54.33;98364.41;4213669;28;7692;-69
2024/01/21 10:01:13;;;;;;;;;;;;;;;5.14;54.24;98357.03;4213243;28;5823;-69
2024/01/21 10:03:16;;;;;;;;;;;;;;;5.14;54.17;98350.97;4216980;28;6400;-68
2024/01/21 10:05:19;;;;;;;;;;;;;;;5.14;54.23;98346.56;4206867;28;5715;-68
2024/01/21 10:07:24;;;;;;;;;;;;;;;5.16;54.37;98349.88;4211854;28;5893;-68
2024/01/21 10:09:27;;;;;;;;;;;;;;;5.18;54.32;98347.97;4214332;28;5673;-69
2024/01/21 10:11:31;;;;;;;;;;;;;;;5.18;54.46;98340.09;4217047;28;5609;-69
2024/01/21 10:13:38;;;;;;;;;;;;;;;5.22;54.33;98338.94;4217231;28;5609;-69
2024/01/21 10:15:41;;;;;;;;;;;;;;;5.24;54.45;98336.19;4208440;28;5811;-70
2024/01/21 10:17:45;;;;;;;;;;;;;;;5.25;54.38;98340.47;4216778;28;5680;-68
2024/01/21 10:19:49;;;;;;;;;;;;;;;5.29;54.22;98334.00;4214209;28;5676;-68
2024/01/21 10:22:07;;;;;;;;;;;;;;;5.32;54.47;98339.00;4190896;28;5658;-68
2024/01/21 10:24:11;;;;;;;;;;;;;;;5.34;54.46;98342.34;4215351;28;6448;-68
2024/01/21 10:26:14;;;;;;;;;;;;;;;5.34;54.45;98337.13;4220239;28;5740;-68
2024/01/21 10:28:18;;;;;;;;;;;;;;;5.36;54.35;98334.38;4216073;28;5698;-68
2024/01/21 10:30:21;;;;;;;;;;;;;;;5.38;54.28;98330.66;4216882;28;5653;-68
2024/01/21 10:32:24;;;;;;;;;;;;;;;5.39;54.49;98326.25;4220358;28;5787;-67
2024/01/21 10:34:27;;;;;;;;;;;;;;;5.39;54.56;98318.38;4220047;28;5791;-67
2024/01/21 10:36:33;;;;;;;;;;;;;;;5.40;54.49;98312.16;4211253;28;5664;-69
2024/01/21 10:38:48;;;;;;;;;;;;;;;5.42;54.37;98312.88;4218771;28;5708;-68
2024/01/21 10:40:51;;;;;;;;;;;;;;;5.43;54.49;98304.88;4203971;28;5090;-68
2024/01/21 10:42:59;;;;;;;;;;;;;;;5.42;54.35;98302.38;4219581;28;7700;-69
2024/01/21 10:45:03;;;;;;;;;;;;;;;5.45;54.55;98315.28;4212383;28;5617;-68
2024/01/21 10:47:08;;;;;;;;;;;;;;;5.42;54.45;98315.50;4219648;28;5743;-67
2024/01/21 10:49:12;;;;;;;;;;;;;;;5.42;54.47;98297.97;4219901;28;6478;-68
2024/01/21 10:51:16;;;;;;;;;;;;;;;5.45;54.51;98302.16;4219568;28;5799;-68
2024/01/21 10:53:23;;;;;;;;;;;;;;;5.45;54.51;98292.50;4219791;28;5664;-69
2024/01/21 10:55:29;;;;;;;;;;;;;;;5.47;54.48;98297.63;4219880;28;5638;-69
2024/01/21 10:57:32;;;;;;;;;;;;;;;5.48;54.73;98289.63;4219662;28;5628;-69
2024/01/21 10:59:38;;;;;;;;;;;;;;;5.51;54.75;98291.16;4212802;28;5781;-68